HAZ8677 ZGSZ-LEMD
Flight info
| Callsign | HAZ8677 |
|---|---|
| Flight time | N/A |
| Altitude | 34000 |
| Route | TOMUD R200 LH R339 BSE A599 LSO A201 LKN R594 DPN G333 MERUN L750 RANAH B449 DUKAN L850 ADEKI N644 TETRO M10 SARPI UM10 TIVUG UL852 NEGEM Q6 GRN DCT GORAV DCT SOMIG DCT GINOX DCT MUREN M601 BCN N975 ADUXO |
| Aircraft | B752/H-SDE2E3FGILRWXY/L2J |
Departure
| Time | 2026-04-18 07:14 |
|---|---|
| Airport | Shenzhen Bao'an International Airport (ZGSZ) |
Arrival
| Time | N/A |
|---|---|
| Airport | Adolfo Suárez Madrid–Barajas Airport (LEMD) |
| Time | Latitude | Longitude | Altitude | Speed | Heading |
|---|---|---|---|---|---|
| 2026-04-18 07:06 | 22.62656 | 113.82183 | 24 ft | 0 kts | 242° |
| 2026-04-18 07:12 | 22.62656 | 113.82182 | 23 ft | 1 kts | 242° |
| 2026-04-18 07:12 | 22.62651 | 113.82172 | 23 ft | 3 kts | 242° |
| 2026-04-18 07:13 | 22.62639 | 113.82132 | 23 ft | 6 kts | 274° |
| 2026-04-18 07:13 | 22.62674 | 113.82036 | 23 ft | 17 kts | 258° |
| 2026-04-18 07:13 | 22.62630 | 113.81932 | 23 ft | 14 kts | 242° |
| 2026-04-18 07:13 | 22.62594 | 113.81844 | 23 ft | 10 kts | 268° |
| 2026-04-18 07:14 | 22.62691 | 113.81738 | 23 ft | 46 kts | 331° |
| 2026-04-18 07:14 | 22.63464 | 113.81325 | 26 ft | 138 kts | 334° |
| 2026-04-18 07:14 | 22.64075 | 113.81001 | 302 ft | 153 kts | 335° |
| 2026-04-18 07:14 | 22.65053 | 113.80489 | 906 ft | 165 kts | 333° |
| 2026-04-18 07:15 | 22.66128 | 113.79887 | 1354 ft | 181 kts | 333° |
| 2026-04-18 07:15 | 22.67329 | 113.79222 | 1914 ft | 210 kts | 333° |
| 2026-04-18 07:15 | 22.68595 | 113.78256 | 2474 ft | 245 kts | 311° |
| 2026-04-18 07:15 | 22.69405 | 113.76482 | 3059 ft | 283 kts | 283° |
| 2026-04-18 07:16 | 22.69251 | 113.73414 | 3810 ft | 335 kts | 255° |
| 2026-04-18 07:16 | 22.68665 | 113.71780 | 4175 ft | 362 kts | 244° |
| 2026-04-18 07:16 | 22.67145 | 113.69530 | 5432 ft | 377 kts | 226° |
| 2026-04-18 07:16 | 22.65059 | 113.67786 | 6871 ft | 387 kts | 211° |
| 2026-04-18 07:17 | 22.62646 | 113.66505 | 8242 ft | 394 kts | 207° |
| 2026-04-18 07:17 | 22.60301 | 113.64970 | 9587 ft | 399 kts | 219° |
| 2026-04-18 07:17 | 22.58267 | 113.62946 | 10850 ft | 404 kts | 228° |
| 2026-04-18 07:17 | 22.56447 | 113.60698 | 12071 ft | 408 kts | 232° |
| 2026-04-18 07:18 | 22.54673 | 113.58280 | 13195 ft | 414 kts | 233° |
| 2026-04-18 07:18 | 22.52911 | 113.55752 | 14266 ft | 421 kts | 234° |
| 2026-04-18 07:18 | 22.51200 | 113.53231 | 15353 ft | 424 kts | 235° |
| 2026-04-18 07:18 | 22.49467 | 113.50643 | 16572 ft | 423 kts | 236° |
| 2026-04-18 07:19 | 22.47775 | 113.48097 | 17685 ft | 422 kts | 236° |
| 2026-04-18 07:19 | 22.46076 | 113.45530 | 18809 ft | 419 kts | 236° |
| 2026-04-18 07:19 | 22.44399 | 113.42992 | 19927 ft | 414 kts | 236° |
| 2026-04-18 07:19 | 22.42751 | 113.40496 | 21038 ft | 408 kts | 236° |
| 2026-04-18 07:20 | 22.41122 | 113.38029 | 22112 ft | 401 kts | 236° |
| 2026-04-18 07:20 | 22.39008 | 113.34825 | 23421 ft | 392 kts | 236° |
| 2026-04-18 07:20 | 22.37456 | 113.32474 | 24398 ft | 383 kts | 236° |
| 2026-04-18 07:20 | 22.36427 | 113.30916 | 24849 ft | 383 kts | 236° |
| 2026-04-18 07:21 | 22.34879 | 113.28572 | 25472 ft | 383 kts | 236° |
| 2026-04-18 07:21 | 22.33325 | 113.26220 | 26098 ft | 382 kts | 236° |
| 2026-04-18 07:21 | 22.31797 | 113.23909 | 26716 ft | 380 kts | 236° |
| 2026-04-18 07:21 | 22.30264 | 113.21591 | 27338 ft | 377 kts | 236° |
| 2026-04-18 07:22 | 22.28762 | 113.19322 | 27950 ft | 374 kts | 236° |
| 2026-04-18 07:22 | 22.27273 | 113.17072 | 28563 ft | 369 kts | 236° |
| 2026-04-18 07:22 | 22.25312 | 113.14111 | 29379 ft | 361 kts | 235° |
| 2026-04-18 07:22 | 22.24343 | 113.12650 | 29788 ft | 357 kts | 235° |
| 2026-04-18 07:23 | 22.22917 | 113.10499 | 30396 ft | 349 kts | 235° |
| 2026-04-18 07:23 | 22.21543 | 113.08427 | 30991 ft | 339 kts | 235° |
| 2026-04-18 07:23 | 22.20183 | 113.06375 | 31467 ft | 333 kts | 235° |
| 2026-04-18 07:23 | 22.18833 | 113.04340 | 31827 ft | 330 kts | 235° |
| 2026-04-18 07:24 | 22.17072 | 113.01688 | 32197 ft | 328 kts | 235° |
| 2026-04-18 07:24 | 22.15703 | 112.99626 | 32453 ft | 327 kts | 235° |
| 2026-04-18 07:24 | 22.14801 | 112.98269 | 32620 ft | 326 kts | 235° |
| 2026-04-18 07:24 | 22.13466 | 112.96259 | 32825 ft | 326 kts | 235° |
| 2026-04-18 07:25 | 22.12145 | 112.94273 | 33019 ft | 326 kts | 235° |
| 2026-04-18 07:25 | 22.10826 | 112.92290 | 33216 ft | 325 kts | 235° |
| 2026-04-18 07:25 | 22.09085 | 112.89672 | 33439 ft | 325 kts | 235° |
| 2026-04-18 07:25 | 22.07756 | 112.87676 | 33566 ft | 326 kts | 235° |
| 2026-04-18 07:26 | 22.05573 | 112.84398 | 33776 ft | 327 kts | 236° |
| 2026-04-18 07:26 | 22.04227 | 112.82378 | 33900 ft | 328 kts | 236° |
| 2026-04-18 07:26 | 22.02879 | 112.80354 | 33917 ft | 333 kts | 236° |
| 2026-04-18 07:27 | 22.00097 | 112.76183 | 33922 ft | 345 kts | 236° |
| 2026-04-18 07:27 | 21.97236 | 112.71896 | 33924 ft | 357 kts | 235° |
| 2026-04-18 07:28 | 21.93718 | 112.66630 | 33922 ft | 374 kts | 235° |
| 2026-04-18 07:28 | 21.91037 | 112.62619 | 33923 ft | 387 kts | 235° |
| 2026-04-18 07:29 | 21.87819 | 112.57810 | 33918 ft | 403 kts | 235° |
| 2026-04-18 07:29 | 21.84909 | 112.52560 | 33932 ft | 416 kts | 249° |
| 2026-04-18 07:30 | 21.82577 | 112.46693 | 33918 ft | 432 kts | 248° |
| 2026-04-18 07:30 | 21.79978 | 112.40163 | 33917 ft | 449 kts | 248° |
| 2026-04-18 07:31 | 21.77242 | 112.33285 | 33915 ft | 466 kts | 248° |
| 2026-04-18 07:31 | 21.74518 | 112.26441 | 33915 ft | 482 kts | 248° |
| 2026-04-18 07:32 | 21.71675 | 112.19311 | 33915 ft | 497 kts | 248° |
| 2026-04-18 07:32 | 21.68631 | 112.11686 | 33914 ft | 510 kts | 248° |
| 2026-04-18 07:33 | 21.65524 | 112.03916 | 33913 ft | 520 kts | 248° |
| 2026-04-18 07:33 | 21.62363 | 111.96026 | 33912 ft | 525 kts | 248° |
| 2026-04-18 07:34 | 21.59207 | 111.88160 | 33912 ft | 528 kts | 248° |
| 2026-04-18 07:34 | 21.56282 | 111.80073 | 33915 ft | 528 kts | 254° |
| 2026-04-18 07:35 | 21.53902 | 111.71807 | 33912 ft | 529 kts | 254° |
| 2026-04-18 07:35 | 21.51522 | 111.63541 | 33913 ft | 529 kts | 254° |
| 2026-04-18 07:36 | 21.49117 | 111.55191 | 33913 ft | 529 kts | 254° |
| 2026-04-18 07:36 | 21.46735 | 111.46932 | 33913 ft | 529 kts | 254° |
| 2026-04-18 07:37 | 21.44350 | 111.38677 | 33913 ft | 529 kts | 254° |
| 2026-04-18 07:37 | 21.41987 | 111.30512 | 33911 ft | 529 kts | 254° |
| 2026-04-18 07:38 | 21.39636 | 111.22407 | 33912 ft | 529 kts | 254° |
| 2026-04-18 07:38 | 21.37290 | 111.14330 | 33912 ft | 529 kts | 254° |
| 2026-04-18 07:39 | 21.34863 | 111.05998 | 33912 ft | 529 kts | 254° |
| 2026-04-18 07:39 | 21.32449 | 110.97723 | 33913 ft | 528 kts | 254° |
| 2026-04-18 07:40 | 21.30024 | 110.89429 | 33913 ft | 527 kts | 254° |
| 2026-04-18 07:40 | 21.27591 | 110.81119 | 33913 ft | 526 kts | 254° |
| 2026-04-18 07:41 | 21.25170 | 110.72871 | 33913 ft | 525 kts | 254° |
| 2026-04-18 07:41 | 21.22749 | 110.64635 | 33913 ft | 525 kts | 254° |
| 2026-04-18 07:42 | 21.20315 | 110.56376 | 33913 ft | 525 kts | 254° |
| 2026-04-18 07:42 | 21.17871 | 110.48096 | 33914 ft | 525 kts | 254° |
| 2026-04-18 07:43 | 21.15839 | 110.39818 | 33919 ft | 521 kts | 265° |
| 2026-04-18 07:43 | 21.16046 | 110.31490 | 33919 ft | 514 kts | 283° |
| 2026-04-18 07:44 | 21.18607 | 110.23750 | 33918 ft | 509 kts | 298° |
| 2026-04-18 07:44 | 21.22147 | 110.16413 | 33913 ft | 510 kts | 300° |
| 2026-04-18 07:45 | 21.25809 | 110.09000 | 33913 ft | 510 kts | 300° |
| 2026-04-18 07:45 | 21.29535 | 110.01531 | 33913 ft | 510 kts | 300° |
| 2026-04-18 07:46 | 21.33226 | 109.94154 | 33913 ft | 510 kts | 300° |
| 2026-04-18 07:46 | 21.36928 | 109.86758 | 33913 ft | 510 kts | 300° |
| 2026-04-18 07:47 | 21.40647 | 109.79324 | 33912 ft | 510 kts | 300° |
| 2026-04-18 07:47 | 21.44331 | 109.71951 | 33912 ft | 510 kts | 300° |
| 2026-04-18 07:48 | 21.48068 | 109.64462 | 33912 ft | 510 kts | 300° |
| 2026-04-18 07:48 | 21.51773 | 109.57027 | 33912 ft | 511 kts | 300° |
| 2026-04-18 07:49 | 21.55446 | 109.49648 | 33912 ft | 511 kts | 300° |
| 2026-04-18 07:49 | 21.59365 | 109.42444 | 33916 ft | 507 kts | 309° |
| 2026-04-18 07:50 | 21.64271 | 109.36055 | 33911 ft | 507 kts | 312° |
| 2026-04-18 07:50 | 21.69252 | 109.29651 | 33911 ft | 507 kts | 311° |
| 2026-04-18 07:51 | 21.74260 | 109.23222 | 33910 ft | 507 kts | 311° |
| 2026-04-18 07:51 | 21.79188 | 109.16897 | 33911 ft | 507 kts | 311° |
| 2026-04-18 07:52 | 21.84147 | 109.10528 | 33910 ft | 506 kts | 311° |
| 2026-04-18 07:52 | 21.89154 | 109.04128 | 33910 ft | 506 kts | 311° |
| 2026-04-18 07:53 | 21.94145 | 108.97750 | 33910 ft | 505 kts | 311° |
| 2026-04-18 07:53 | 21.99145 | 108.91351 | 33910 ft | 505 kts | 311° |
| 2026-04-18 07:54 | 22.04166 | 108.84918 | 33910 ft | 505 kts | 311° |
| 2026-04-18 07:54 | 22.09184 | 108.78481 | 33909 ft | 505 kts | 311° |
| 2026-04-18 07:55 | 22.14134 | 108.72141 | 33913 ft | 505 kts | 311° |
| 2026-04-18 07:55 | 22.19140 | 108.65739 | 33912 ft | 505 kts | 311° |
| 2026-04-18 07:56 | 22.24126 | 108.59356 | 33912 ft | 505 kts | 311° |
| 2026-04-18 07:56 | 22.29099 | 108.52982 | 33912 ft | 505 kts | 311° |
| 2026-04-18 07:57 | 22.34120 | 108.46538 | 33912 ft | 505 kts | 311° |
| 2026-04-18 07:57 | 22.39133 | 108.40096 | 33911 ft | 505 kts | 311° |
| 2026-04-18 07:58 | 22.46590 | 108.30499 | 33912 ft | 505 kts | 310° |
| 2026-04-18 07:59 | 22.51577 | 108.24071 | 33912 ft | 505 kts | 310° |
| 2026-04-18 07:59 | 22.56576 | 108.17619 | 33912 ft | 505 kts | 310° |
| 2026-04-18 08:00 | 22.61659 | 108.11480 | 33912 ft | 505 kts | 314° |
| 2026-04-18 08:00 | 22.66907 | 108.05508 | 33911 ft | 505 kts | 314° |
| 2026-04-18 08:01 | 22.72171 | 107.99496 | 33911 ft | 505 kts | 314° |
| 2026-04-18 08:01 | 22.77474 | 107.93426 | 33911 ft | 505 kts | 314° |
| 2026-04-18 08:02 | 22.82800 | 107.87322 | 33910 ft | 505 kts | 314° |
| 2026-04-18 08:02 | 22.88083 | 107.81259 | 33910 ft | 505 kts | 314° |
| 2026-04-18 08:03 | 22.93463 | 107.75077 | 33910 ft | 505 kts | 314° |
| 2026-04-18 08:03 | 22.98796 | 107.68941 | 33910 ft | 505 kts | 314° |
| 2026-04-18 08:04 | 23.04126 | 107.62802 | 33909 ft | 505 kts | 314° |
| 2026-04-18 08:04 | 23.09446 | 107.56672 | 33909 ft | 505 kts | 314° |
| 2026-04-18 08:05 | 23.14597 | 107.50730 | 33912 ft | 505 kts | 314° |
| 2026-04-18 08:05 | 23.19802 | 107.44718 | 33912 ft | 505 kts | 314° |
| 2026-04-18 08:06 | 23.25073 | 107.38623 | 33911 ft | 505 kts | 314° |
| 2026-04-18 08:06 | 23.30254 | 107.32624 | 33913 ft | 505 kts | 313° |
| 2026-04-18 08:07 | 23.35455 | 107.26595 | 33913 ft | 505 kts | 313° |
| 2026-04-18 08:07 | 23.40841 | 107.20343 | 33912 ft | 505 kts | 313° |
| 2026-04-18 08:08 | 23.45797 | 107.14584 | 33912 ft | 505 kts | 313° |
| 2026-04-18 08:08 | 23.50644 | 107.08944 | 33912 ft | 505 kts | 313° |
| 2026-04-18 08:09 | 23.55450 | 107.03346 | 33912 ft | 505 kts | 313° |
| 2026-04-18 08:09 | 23.60201 | 106.97807 | 33911 ft | 505 kts | 313° |
| 2026-04-18 08:10 | 23.64995 | 106.92209 | 33911 ft | 505 kts | 313° |
| 2026-04-18 08:10 | 23.69803 | 106.86590 | 33911 ft | 506 kts | 313° |
| 2026-04-18 08:11 | 23.74590 | 106.80988 | 33911 ft | 507 kts | 313° |
| 2026-04-18 08:11 | 23.79404 | 106.75348 | 33911 ft | 508 kts | 313° |
| 2026-04-18 08:12 | 23.84221 | 106.69697 | 33911 ft | 509 kts | 313° |
| 2026-04-18 08:12 | 23.88955 | 106.63991 | 33912 ft | 508 kts | 307° |
| 2026-04-18 08:13 | 23.92433 | 106.57284 | 33916 ft | 507 kts | 290° |
| 2026-04-18 08:13 | 23.94302 | 106.49786 | 33911 ft | 507 kts | 283° |
| 2026-04-18 08:14 | 23.95928 | 106.42158 | 33910 ft | 508 kts | 283° |
| 2026-04-18 08:14 | 23.97514 | 106.34483 | 33910 ft | 508 kts | 282° |
| 2026-04-18 08:15 | 23.99087 | 106.26760 | 33912 ft | 508 kts | 282° |
| 2026-04-18 08:15 | 24.00658 | 106.18980 | 33912 ft | 508 kts | 282° |
| 2026-04-18 08:16 | 24.02197 | 106.11318 | 33912 ft | 508 kts | 282° |
| 2026-04-18 08:16 | 24.03718 | 106.03715 | 33911 ft | 508 kts | 282° |
| 2026-04-18 08:17 | 24.05247 | 105.96052 | 33911 ft | 508 kts | 282° |
| 2026-04-18 08:17 | 24.06787 | 105.88306 | 33911 ft | 508 kts | 282° |
| 2026-04-18 08:18 | 24.08327 | 105.80542 | 33911 ft | 508 kts | 282° |
| 2026-04-18 08:18 | 24.09877 | 105.72702 | 33911 ft | 508 kts | 282° |
| 2026-04-18 08:19 | 24.11681 | 105.64799 | 33911 ft | 508 kts | 285° |
| 2026-04-18 08:19 | 24.13655 | 105.56745 | 33911 ft | 508 kts | 285° |
| 2026-04-18 08:20 | 24.15620 | 105.48692 | 33911 ft | 508 kts | 285° |
| 2026-04-18 08:20 | 24.17513 | 105.40902 | 33911 ft | 508 kts | 285° |
| 2026-04-18 08:21 | 24.19400 | 105.33118 | 33912 ft | 508 kts | 284° |
| 2026-04-18 08:21 | 24.21303 | 105.25246 | 33913 ft | 508 kts | 284° |
| 2026-04-18 08:22 | 24.23114 | 105.17421 | 33912 ft | 508 kts | 283° |
| 2026-04-18 08:22 | 24.24868 | 105.09512 | 33913 ft | 508 kts | 283° |
| 2026-04-18 08:23 | 24.26622 | 105.01589 | 33912 ft | 507 kts | 283° |
| 2026-04-18 08:23 | 24.28443 | 104.93346 | 34104 ft | 504 kts | 283° |
| 2026-04-18 08:24 | 24.30298 | 104.84917 | 34100 ft | 505 kts | 283° |
| 2026-04-18 08:24 | 24.32123 | 104.76606 | 34100 ft | 505 kts | 283° |
| 2026-04-18 08:25 | 24.33949 | 104.68262 | 34100 ft | 505 kts | 283° |
| 2026-04-18 08:25 | 24.35789 | 104.59837 | 34099 ft | 505 kts | 283° |
| 2026-04-18 08:26 | 24.37602 | 104.51512 | 34099 ft | 505 kts | 283° |
| 2026-04-18 08:26 | 24.39413 | 104.43170 | 34099 ft | 505 kts | 283° |
| 2026-04-18 08:27 | 24.41220 | 104.34828 | 34098 ft | 505 kts | 282° |
| 2026-04-18 08:27 | 24.43032 | 104.26433 | 34102 ft | 505 kts | 282° |
| 2026-04-18 08:28 | 24.44826 | 104.18102 | 34102 ft | 505 kts | 282° |
| 2026-04-18 08:28 | 24.46642 | 104.09645 | 34101 ft | 505 kts | 282° |
| 2026-04-18 08:29 | 24.48413 | 104.01371 | 34101 ft | 505 kts | 282° |
| 2026-04-18 08:29 | 24.50201 | 103.92996 | 34101 ft | 505 kts | 282° |
| 2026-04-18 08:30 | 24.51928 | 103.84885 | 34100 ft | 505 kts | 282° |
| 2026-04-18 08:30 | 24.53747 | 103.76439 | 34100 ft | 505 kts | 285° |
| 2026-04-18 08:31 | 24.56768 | 103.68571 | 34101 ft | 506 kts | 295° |
| 2026-04-18 08:31 | 24.60177 | 103.60841 | 34100 ft | 507 kts | 295° |
| 2026-04-18 08:32 | 24.63638 | 103.53012 | 34099 ft | 507 kts | 295° |
| 2026-04-18 08:32 | 24.67070 | 103.45246 | 34099 ft | 507 kts | 295° |
| 2026-04-18 08:33 | 24.70508 | 103.37460 | 34099 ft | 507 kts | 295° |
| 2026-04-18 08:33 | 24.73711 | 103.30196 | 34102 ft | 507 kts | 295° |
| 2026-04-18 08:34 | 24.76820 | 103.23135 | 34102 ft | 507 kts | 295° |
| 2026-04-18 08:34 | 24.79982 | 103.15943 | 34102 ft | 507 kts | 294° |
| 2026-04-18 08:35 | 24.83310 | 103.08360 | 34102 ft | 507 kts | 294° |
| 2026-04-18 08:35 | 24.86673 | 103.00684 | 34102 ft | 508 kts | 294° |
| 2026-04-18 08:36 | 24.89973 | 102.93140 | 34101 ft | 508 kts | 294° |
| 2026-04-18 08:36 | 24.93224 | 102.85722 | 34101 ft | 509 kts | 295° |
| 2026-04-18 08:37 | 24.96568 | 102.78200 | 34101 ft | 509 kts | 295° |
| 2026-04-18 08:37 | 24.99969 | 102.70534 | 34101 ft | 508 kts | 294° |
| 2026-04-18 08:38 | 25.03350 | 102.62793 | 34100 ft | 504 kts | 291° |
| 2026-04-18 08:38 | 25.05106 | 102.54833 | 34104 ft | 497 kts | 273° |
| 2026-04-18 08:39 | 25.04434 | 102.46652 | 34104 ft | 494 kts | 255° |
| 2026-04-18 08:39 | 25.01530 | 102.38824 | 34099 ft | 495 kts | 245° |
| 2026-04-18 08:40 | 24.98188 | 102.31351 | 34103 ft | 498 kts | 243° |
| 2026-04-18 08:40 | 24.94652 | 102.23742 | 34103 ft | 501 kts | 243° |
| 2026-04-18 08:41 | 24.91066 | 102.16160 | 34103 ft | 502 kts | 242° |
| 2026-04-18 08:41 | 24.87474 | 102.08623 | 34102 ft | 503 kts | 242° |
| 2026-04-18 08:42 | 24.83834 | 102.01019 | 34102 ft | 503 kts | 242° |
| 2026-04-18 08:42 | 24.80144 | 101.93330 | 34101 ft | 503 kts | 242° |
| 2026-04-18 08:43 | 24.76410 | 101.85565 | 34101 ft | 503 kts | 242° |
| 2026-04-18 08:43 | 24.72725 | 101.77917 | 34100 ft | 503 kts | 242° |
| 2026-04-18 08:44 | 24.69002 | 101.70203 | 34100 ft | 503 kts | 242° |
| 2026-04-18 08:44 | 24.65319 | 101.62584 | 34100 ft | 503 kts | 242° |
| 2026-04-18 08:45 | 24.61575 | 101.54873 | 34099 ft | 503 kts | 242° |
| 2026-04-18 08:45 | 24.57843 | 101.47297 | 34099 ft | 503 kts | 242° |
| 2026-04-18 08:46 | 24.54070 | 101.39651 | 34099 ft | 503 kts | 242° |
| 2026-04-18 08:46 | 24.50341 | 101.32103 | 34102 ft | 503 kts | 241° |
| 2026-04-18 08:47 | 24.46586 | 101.24516 | 34102 ft | 503 kts | 241° |
| 2026-04-18 08:47 | 24.42822 | 101.16923 | 34101 ft | 503 kts | 241° |
| 2026-04-18 08:48 | 24.39015 | 101.09255 | 34101 ft | 503 kts | 241° |
| 2026-04-18 08:48 | 24.35221 | 101.01627 | 34101 ft | 503 kts | 241° |
| 2026-04-18 08:49 | 24.31423 | 100.93999 | 34100 ft | 503 kts | 241° |
| 2026-04-18 08:49 | 24.27574 | 100.86284 | 34100 ft | 503 kts | 241° |
| 2026-04-18 08:50 | 24.23778 | 100.78689 | 34099 ft | 503 kts | 241° |
| 2026-04-18 08:50 | 24.20004 | 100.71149 | 34099 ft | 504 kts | 241° |
| 2026-04-18 08:51 | 24.16161 | 100.63483 | 34099 ft | 504 kts | 241° |
| 2026-04-18 08:51 | 24.12379 | 100.55951 | 34098 ft | 504 kts | 240° |
| 2026-04-18 08:52 | 24.08533 | 100.48425 | 34098 ft | 504 kts | 240° |
| 2026-04-18 08:52 | 24.04719 | 100.40983 | 34098 ft | 504 kts | 240° |
| 2026-04-18 08:53 | 24.00944 | 100.33626 | 34099 ft | 504 kts | 240° |
| 2026-04-18 08:53 | 23.97422 | 100.26775 | 34100 ft | 504 kts | 240° |
| 2026-04-18 08:54 | 23.93858 | 100.19849 | 34100 ft | 504 kts | 240° |
| 2026-04-18 08:54 | 23.90100 | 100.12557 | 34099 ft | 504 kts | 240° |
| 2026-04-18 08:55 | 23.86309 | 100.05214 | 34094 ft | 504 kts | 240° |
| 2026-04-18 08:55 | 23.82544 | 99.97929 | 34005 ft | 505 kts | 240° |
| 2026-04-18 08:56 | 23.78740 | 99.90584 | 33901 ft | 506 kts | 240° |
| 2026-04-18 08:56 | 23.75158 | 99.83674 | 33840 ft | 506 kts | 240° |
| 2026-04-18 08:57 | 23.69892 | 99.73536 | 33830 ft | 505 kts | 240° |
| 2026-04-18 08:57 | 23.66384 | 99.66792 | 33830 ft | 505 kts | 240° |
| 2026-04-18 08:58 | 23.62808 | 99.59930 | 33830 ft | 505 kts | 240° |
| 2026-04-18 08:58 | 23.59036 | 99.52698 | 33830 ft | 505 kts | 240° |
| 2026-04-18 08:59 | 23.55429 | 99.45795 | 33829 ft | 505 kts | 240° |
| 2026-04-18 08:59 | 23.52199 | 99.38635 | 33833 ft | 505 kts | 250° |
| 2026-04-18 09:00 | 23.49857 | 99.31166 | 33832 ft | 506 kts | 250° |
| 2026-04-18 09:00 | 23.47566 | 99.23841 | 33831 ft | 506 kts | 250° |
| 2026-04-18 09:01 | 23.45103 | 99.15955 | 33831 ft | 506 kts | 250° |
| 2026-04-18 09:01 | 23.42601 | 99.07950 | 33822 ft | 506 kts | 250° |
| 2026-04-18 09:02 | 23.40095 | 98.99944 | 33785 ft | 505 kts | 250° |
| 2026-04-18 09:02 | 23.37595 | 98.91976 | 33749 ft | 503 kts | 250° |
| 2026-04-18 09:03 | 23.34945 | 98.84026 | 33721 ft | 501 kts | 249° |
| 2026-04-18 09:03 | 23.32272 | 98.76055 | 33721 ft | 501 kts | 249° |
| 2026-04-18 09:04 | 23.29587 | 98.68061 | 33720 ft | 500 kts | 249° |
| 2026-04-18 09:04 | 23.26857 | 98.59950 | 33720 ft | 500 kts | 249° |
| 2026-04-18 09:05 | 23.24169 | 98.51977 | 33720 ft | 500 kts | 249° |
| 2026-04-18 09:05 | 23.21431 | 98.43874 | 33719 ft | 500 kts | 249° |
| 2026-04-18 09:06 | 23.18735 | 98.35908 | 33719 ft | 500 kts | 249° |
| 2026-04-18 09:06 | 23.16036 | 98.27949 | 33723 ft | 500 kts | 249° |
| 2026-04-18 09:07 | 23.13281 | 98.19841 | 33723 ft | 501 kts | 249° |
| 2026-04-18 09:07 | 23.10566 | 98.11865 | 33722 ft | 501 kts | 249° |
| 2026-04-18 09:08 | 23.07866 | 98.03948 | 33722 ft | 501 kts | 249° |
| 2026-04-18 09:08 | 23.05154 | 97.96011 | 33721 ft | 501 kts | 249° |
| 2026-04-18 09:09 | 23.02393 | 97.87942 | 33720 ft | 501 kts | 249° |
| 2026-04-18 09:09 | 22.99690 | 97.79860 | 33720 ft | 503 kts | 253° |
| 2026-04-18 09:10 | 22.98762 | 97.71276 | 33725 ft | 508 kts | 272° |
| 2026-04-18 09:10 | 22.99698 | 97.62704 | 33723 ft | 510 kts | 276° |
| 2026-04-18 09:11 | 23.00733 | 97.54069 | 33747 ft | 509 kts | 276° |
| 2026-04-18 09:11 | 23.01759 | 97.45569 | 33746 ft | 508 kts | 276° |
| 2026-04-18 09:12 | 23.02780 | 97.37119 | 33774 ft | 506 kts | 276° |
| 2026-04-18 09:12 | 23.03790 | 97.28732 | 33836 ft | 505 kts | 276° |
| 2026-04-18 09:13 | 23.04813 | 97.20207 | 33896 ft | 503 kts | 276° |
| 2026-04-18 09:13 | 23.05827 | 97.11725 | 33911 ft | 503 kts | 276° |
| 2026-04-18 09:14 | 23.06790 | 97.03638 | 33911 ft | 504 kts | 276° |
| 2026-04-18 09:14 | 23.07733 | 96.95679 | 33910 ft | 504 kts | 276° |
| 2026-04-18 09:15 | 23.08686 | 96.87601 | 33910 ft | 505 kts | 276° |
| 2026-04-18 09:15 | 23.09656 | 96.79343 | 33910 ft | 505 kts | 276° |
| 2026-04-18 09:16 | 23.10649 | 96.70853 | 33909 ft | 505 kts | 276° |
| 2026-04-18 09:16 | 23.11642 | 96.62318 | 33909 ft | 505 kts | 276° |
| 2026-04-18 09:17 | 23.12615 | 96.53920 | 33909 ft | 505 kts | 276° |
| 2026-04-18 09:17 | 23.13586 | 96.45496 | 33908 ft | 505 kts | 276° |
| 2026-04-18 09:18 | 23.14546 | 96.37123 | 33908 ft | 505 kts | 276° |
| 2026-04-18 09:18 | 23.15493 | 96.28833 | 33912 ft | 505 kts | 275° |
| 2026-04-18 09:19 | 23.16470 | 96.20230 | 33912 ft | 505 kts | 275° |
| 2026-04-18 09:19 | 23.17433 | 96.11710 | 33911 ft | 505 kts | 275° |
| 2026-04-18 09:20 | 23.18402 | 96.03099 | 33911 ft | 505 kts | 275° |
| 2026-04-18 09:20 | 23.19348 | 95.94651 | 33911 ft | 505 kts | 275° |
| 2026-04-18 09:21 | 23.20286 | 95.86231 | 33910 ft | 505 kts | 275° |
| 2026-04-18 09:21 | 23.21216 | 95.77840 | 33910 ft | 505 kts | 275° |
| 2026-04-18 09:22 | 23.22146 | 95.69414 | 33910 ft | 505 kts | 275° |
| 2026-04-18 09:22 | 23.23076 | 95.60939 | 33909 ft | 505 kts | 275° |
| 2026-04-18 09:23 | 23.24000 | 95.52480 | 33909 ft | 505 kts | 275° |
| 2026-04-18 09:23 | 23.24904 | 95.44165 | 33908 ft | 505 kts | 275° |
| 2026-04-18 09:24 | 23.25807 | 95.35817 | 33908 ft | 505 kts | 275° |
| 2026-04-18 09:24 | 23.26714 | 95.27384 | 33912 ft | 505 kts | 275° |
| 2026-04-18 09:25 | 23.27601 | 95.19098 | 33912 ft | 505 kts | 275° |
| 2026-04-18 09:25 | 23.28474 | 95.10898 | 33912 ft | 505 kts | 275° |
| 2026-04-18 09:26 | 23.29369 | 95.02445 | 33911 ft | 505 kts | 275° |
| 2026-04-18 09:26 | 23.30262 | 94.93986 | 33911 ft | 505 kts | 275° |
| 2026-04-18 09:27 | 23.31144 | 94.85578 | 33910 ft | 505 kts | 275° |
| 2026-04-18 09:27 | 23.32017 | 94.77202 | 33910 ft | 505 kts | 274° |
| 2026-04-18 09:28 | 23.32896 | 94.68726 | 33910 ft | 505 kts | 274° |
| 2026-04-18 09:28 | 23.33783 | 94.60131 | 33909 ft | 505 kts | 274° |
| 2026-04-18 09:29 | 23.34645 | 94.51740 | 33909 ft | 505 kts | 274° |
| 2026-04-18 09:29 | 23.35523 | 94.43137 | 33908 ft | 505 kts | 274° |
| 2026-04-18 09:30 | 23.36380 | 94.34698 | 33908 ft | 505 kts | 274° |
| 2026-04-18 09:30 | 23.37240 | 94.26183 | 33913 ft | 505 kts | 274° |
| 2026-04-18 09:31 | 23.38112 | 94.17499 | 33912 ft | 505 kts | 274° |
| 2026-04-18 09:31 | 23.38958 | 94.09032 | 33912 ft | 505 kts | 274° |
| 2026-04-18 09:32 | 23.39781 | 94.00740 | 33907 ft | 505 kts | 274° |
| 2026-04-18 09:32 | 23.40603 | 93.92426 | 33900 ft | 505 kts | 274° |
| 2026-04-18 09:33 | 23.41432 | 93.83982 | 33894 ft | 505 kts | 274° |
| 2026-04-18 09:33 | 23.42258 | 93.75533 | 33891 ft | 505 kts | 274° |
| 2026-04-18 09:34 | 23.43083 | 93.67039 | 33887 ft | 505 kts | 274° |
| 2026-04-18 09:34 | 23.43902 | 93.58564 | 33883 ft | 505 kts | 274° |
| 2026-04-18 09:35 | 23.44721 | 93.50034 | 33882 ft | 505 kts | 274° |
| 2026-04-18 09:35 | 23.45927 | 93.41504 | 33884 ft | 507 kts | 280° |
| 2026-04-18 09:36 | 23.47568 | 93.33063 | 33885 ft | 507 kts | 279° |
| 2026-04-18 09:36 | 23.49191 | 93.24551 | 33886 ft | 507 kts | 279° |
| 2026-04-18 09:37 | 23.50800 | 93.16044 | 33886 ft | 507 kts | 279° |
| 2026-04-18 09:37 | 23.52382 | 93.07632 | 33885 ft | 507 kts | 279° |
| 2026-04-18 09:38 | 23.53977 | 92.99113 | 33885 ft | 509 kts | 279° |
| 2026-04-18 09:38 | 23.55566 | 92.90603 | 33885 ft | 511 kts | 279° |
| 2026-04-18 09:39 | 23.57178 | 92.81937 | 33885 ft | 512 kts | 279° |
| 2026-04-18 09:39 | 23.58760 | 92.73405 | 33884 ft | 513 kts | 279° |
| 2026-04-18 09:40 | 23.60332 | 92.64904 | 33884 ft | 513 kts | 279° |
| 2026-04-18 09:40 | 23.62045 | 92.56409 | 33884 ft | 513 kts | 281° |
| 2026-04-18 09:41 | 23.63802 | 92.47974 | 33884 ft | 513 kts | 281° |
| 2026-04-18 09:41 | 23.65583 | 92.39394 | 33883 ft | 513 kts | 281° |
| 2026-04-18 09:42 | 23.67331 | 92.30943 | 33887 ft | 513 kts | 281° |
| 2026-04-18 09:42 | 23.69064 | 92.22544 | 33886 ft | 513 kts | 281° |
| 2026-04-18 09:43 | 23.70796 | 92.14123 | 33859 ft | 513 kts | 281° |
| 2026-04-18 09:43 | 23.72510 | 92.05760 | 33850 ft | 513 kts | 281° |
| 2026-04-18 09:44 | 23.74226 | 91.97369 | 33840 ft | 513 kts | 281° |
| 2026-04-18 09:44 | 23.75922 | 91.89052 | 33832 ft | 513 kts | 281° |
| 2026-04-18 09:45 | 23.77637 | 91.80615 | 33831 ft | 513 kts | 281° |
| 2026-04-18 09:45 | 23.79364 | 91.72089 | 33831 ft | 513 kts | 281° |
| 2026-04-18 09:46 | 23.81086 | 91.63567 | 33831 ft | 513 kts | 281° |
| 2026-04-18 09:46 | 23.82797 | 91.55077 | 33831 ft | 513 kts | 281° |
| 2026-04-18 09:47 | 23.84516 | 91.46519 | 33830 ft | 513 kts | 281° |
| 2026-04-18 09:47 | 23.86210 | 91.38058 | 33830 ft | 513 kts | 281° |
| 2026-04-18 09:48 | 23.87893 | 91.29630 | 33833 ft | 513 kts | 280° |
| 2026-04-18 09:48 | 23.89559 | 91.21474 | 33833 ft | 513 kts | 281° |
| 2026-04-18 09:49 | 23.91428 | 91.12957 | 33833 ft | 512 kts | 282° |
| 2026-04-18 09:49 | 23.93279 | 91.04479 | 33832 ft | 509 kts | 282° |
| 2026-04-18 09:50 | 23.95089 | 90.96164 | 33832 ft | 507 kts | 282° |
| 2026-04-18 09:50 | 23.96900 | 90.87826 | 33824 ft | 507 kts | 282° |
| 2026-04-18 09:51 | 23.98713 | 90.79449 | 33815 ft | 507 kts | 282° |